Time;durP1;ratioP1;P1;durP2;ratioP2;P2;SDS_P1;SDS_P2;PMS_P1;PMS_P2;Temp;Humidity;BMP_temperature;BMP_pressure;BME280_temperature;BME280_humidity;BME280_pressure;Samples;Min_cycle;Max_cycle;Signal;HPM_P1;HPM_P2
2023/03/24 00:01:39;;;;;;;3.85;2.63;;;;;;;10.96;79.78;99999.41;7398236;19;20018;-71
2023/03/24 00:04:07;;;;;;;2.45;2.00;;;;;;;10.95;79.84;100000.31;7395863;19;20018;-70
2023/03/24 00:06:36;;;;;;;3.35;2.53;;;;;;;10.95;80.06;99997.69;7397687;19;20496;-70
2023/03/24 00:09:06;;;;;;;4.10;2.30;;;;;;;10.95;80.05;99989.81;7397190;19;20027;-70
2023/03/24 00:11:37;;;;;;;3.00;2.28;;;;;;;10.95;80.19;99992.44;7397947;19;20086;-71
2023/03/24 00:14:06;;;;;;;3.78;2.10;;;;;;;10.94;80.35;99982.84;7396655;19;20045;-72
2023/03/24 00:16:37;;;;;;;3.72;2.28;;;;;;;10.94;80.19;99987.25;7397801;19;20027;-71
2023/03/24 00:19:06;;;;;;;4.63;3.17;;;;;;;10.94;80.30;99987.25;7398222;19;20403;-70
2023/03/24 00:21:36;;;;;;;5.65;2.55;;;;;;;10.94;80.18;99984.63;7397139;19;20015;-70
2023/03/24 00:24:06;;;;;;;4.18;2.50;;;;;;;10.94;80.36;99979.38;7395753;19;20018;-70
2023/03/24 00:26:39;;;;;;;3.10;2.55;;;;;;;10.92;80.45;99982.91;7397642;19;20018;-70
2023/03/24 00:29:09;;;;;;;3.58;2.47;;;;;;;10.92;80.56;99976.81;7395828;19;20083;-70
2023/03/24 00:31:38;;;;;;;3.28;2.28;;;;;;;10.92;80.53;99982.91;7396918;19;20038;-70
2023/03/24 00:34:08;;;;;;;2.42;2.00;;;;;;;10.90;80.41;99979.47;7395842;19;20078;-70
2023/03/24 00:36:37;;;;;;;2.88;2.35;;;;;;;10.88;80.87;99977.81;7395945;19;20031;-70
2023/03/24 00:39:07;;;;;;;2.17;1.90;;;;;;;10.86;80.75;99971.78;7395464;19;20022;-70
2023/03/24 00:41:38;;;;;;;3.78;2.30;;;;;;;10.85;80.94;99960.41;7394729;19;20634;-70
2023/03/24 00:44:07;;;;;;;3.45;2.20;;;;;;;10.83;81.02;99956.13;7395669;19;20018;-71
2023/03/24 00:46:37;;;;;;;2.67;2.45;;;;;;;10.83;81.01;99957.00;7394952;19;20022;-70
2023/03/24 00:49:10;;;;;;;3.13;2.65;;;;;;;10.81;81.14;99957.97;7394747;19;20074;-71
2023/03/24 00:51:41;;;;;;;3.72;2.85;;;;;;;10.80;81.16;99940.50;7396879;19;20371;-71
2023/03/24 00:54:12;;;;;;;3.00;2.50;;;;;;;10.76;81.31;99937.13;7394881;19;20014;-70
2023/03/24 00:56:48;;;;;;;2.50;2.22;;;;;;;10.74;81.27;99936.31;7396302;19;20014;-71
2023/03/24 00:59:16;;;;;;;4.93;2.90;;;;;;;10.71;81.54;99929.41;7396124;19;20025;-71
2023/03/24 01:01:45;;;;;;;2.28;2.00;;;;;;;10.69;81.57;99933.88;7396198;19;20014;-70
2023/03/24 01:04:13;;;;;;;2.60;2.38;;;;;;;10.68;81.77;99921.66;7394613;19;20502;-71
2023/03/24 01:06:43;;;;;;;2.65;2.40;;;;;;;10.65;81.71;99916.50;7396096;19;20007;-71
2023/03/24 01:09:12;;;;;;;3.92;2.40;;;;;;;10.64;81.87;99912.19;7394341;19;20066;-71
2023/03/24 01:11:45;;;;;;;2.80;2.30;;;;;;;10.63;81.86;99912.22;7393940;19;20028;-74
2023/03/24 01:14:14;;;;;;;3.42;2.67;;;;;;;10.61;81.90;99904.41;7394469;19;20039;-70
2023/03/24 01:16:43;;;;;;;2.92;2.35;;;;;;;10.59;82.02;99904.47;7393570;19;20014;-70
2023/03/24 01:19:13;;;;;;;2.70;2.38;;;;;;;10.59;82.03;99891.38;7395419;19;20015;-71
2023/03/24 01:21:42;;;;;;;2.67;2.35;;;;;;;10.58;82.19;99889.66;7395687;19;20019;-70
2023/03/24 01:24:12;;;;;;;4.63;2.53;;;;;;;10.58;82.12;99889.66;7395324;19;20015;-71
2023/03/24 01:26:41;;;;;;;2.70;2.22;;;;;;;10.58;82.24;99887.03;7395185;19;20087;-70
2023/03/24 01:29:12;;;;;;;3.38;2.20;;;;;;;10.58;82.21;99873.06;7395076;19;20018;-70
2023/03/24 01:31:40;;;;;;;2.90;2.10;;;;;;;10.59;82.22;99865.13;7395094;19;20415;-70
2023/03/24 01:34:09;;;;;;;2.20;1.63;;;;;;;10.61;82.25;99861.63;7394063;19;20023;-71
2023/03/24 01:36:37;;;;;;;2.28;2.00;;;;;;;10.63;82.15;99854.53;7393575;19;20014;-70
2023/03/24 01:39:06;;;;;;;5.80;2.00;;;;;;;10.65;82.17;99857.97;7395376;19;20019;-71
2023/03/24 01:41:39;;;;;;;2.45;1.95;;;;;;;10.66;82.18;99851.81;7393382;19;20042;-70
2023/03/24 01:44:29;;;;;;;2.80;1.92;;;;;;;10.69;81.90;99851.69;7393450;19;20018;-70
2023/03/24 01:46:59;;;;;;;2.30;1.92;;;;;;;10.70;81.90;99854.28;7394237;19;20007;-70
2023/03/24 01:49:33;;;;;;;2.80;2.22;;;;;;;10.74;81.81;99857.59;7394807;19;20018;-71
2023/03/24 01:52:04;;;;;;;3.40;2.25;;;;;;;10.76;81.61;99854.00;7395124;19;20015;-71
2023/03/24 01:54:37;;;;;;;2.08;1.60;;;;;;;10.79;81.53;99845.19;7393819;19;20018;-70
2023/03/24 01:57:11;;;;;;;2.75;1.77;;;;;;;10.83;81.33;99841.56;7396766;19;20023;-72
2023/03/24 01:59:47;;;;;;;2.28;1.75;;;;;;;10.86;81.46;99837.97;7395398;19;20014;-72
2023/03/24 02:02:17;;;;;;;2.70;2.13;;;;;;;10.90;81.11;99832.50;7395981;19;20019;-71
2023/03/24 02:04:52;;;;;;;1.85;1.52;;;;;;;10.94;81.18;99832.41;7392172;19;20022;-71
2023/03/24 02:07:31;;;;;;;1.73;1.50;;;;;;;10.96;80.95;99831.44;7394064;19;20499;-71
2023/03/24 02:09:59;;;;;;;2.63;1.80;;;;;;;11.00;80.88;99830.41;7393118;19;20027;-71
2023/03/24 02:12:28;;;;;;;3.15;2.25;;;;;;;11.04;80.71;99828.53;7392182;19;20031;-71
2023/03/24 02:15:00;;;;;;;4.28;1.65;;;;;;;11.06;80.59;99819.66;7394210;19;20014;-71
2023/03/24 02:17:50;;;;;;;4.45;2.20;;;;;;;11.10;80.00;99809.91;7394627;19;20027;-71
2023/03/24 02:20:58;;;;;;;2.17;1.58;;;;;;;11.13;80.12;99814.19;7393817;19;20019;-71
2023/03/24 02:24:09;;;;;;;2.85;1.77;;;;;;;11.17;80.02;99810.50;7393346;19;20031;-71
2023/03/24 02:26:50;;;;;;;2.40;1.92;;;;;;;11.15;79.99;99801.88;7394749;19;20028;-71
2023/03/24 02:29:45;;;;;;;2.25;1.55;;;;;;;11.21;79.84;99814.75;7401332;19;20018;-71
2023/03/24 02:32:48;;;;;;;3.75;2.15;;;;;;;11.22;79.85;99796.31;7400920;19;20022;-71
2023/03/24 02:35:46;;;;;;;3.70;2.28;;;;;;;11.23;80.20;99800.66;7400660;19;20509;-71
2023/03/24 02:38:45;;;;;;;3.28;1.90;;;;;;;11.24;80.40;99797.09;7398608;19;20502;-71
2023/03/24 02:41:21;;;;;;;3.55;2.05;;;;;;;11.23;80.60;99795.41;7401289;19;20019;-71
2023/03/24 02:43:59;;;;;;;2.80;2.60;;;;;;;11.21;80.93;99789.34;7398868;19;20372;-71
2023/03/24 02:46:34;;;;;;;4.47;2.65;;;;;;;11.21;81.17;99789.34;7401209;19;20031;-71
2023/03/24 02:49:12;;;;;;;2.72;2.25;;;;;;;11.19;81.66;99788.53;7398030;19;20021;-71
2023/03/24 02:51:51;;;;;;;3.33;2.92;;;;;;;11.17;81.97;99779.00;7400267;19;20027;-71
2023/03/24 02:54:22;;;;;;;4.05;2.80;;;;;;;11.13;82.07;99782.69;7398499;19;20022;-71
2023/03/24 02:56:58;;;;;;;3.53;2.92;;;;;;;11.08;83.15;99780.22;7400810;19;20018;-71
2023/03/24 02:59:36;;;;;;;3.80;3.03;;;;;;;11.04;83.06;99773.41;7400288;19;20364;-71
2023/03/24 03:02:09;;;;;;;5.35;3.00;;;;;;;11.00;83.67;99775.28;7399854;19;20489;-70
2023/03/24 03:04:44;;;;;;;3.50;2.80;;;;;;;10.95;84.05;99761.50;7397552;19;20015;-71
2023/03/24 03:07:15;;;;;;;3.47;3.17;;;;;;;10.91;84.53;99768.63;7399662;19;20413;-71
2023/03/24 03:09:48;;;;;;;4.50;3.55;;;;;;;10.88;84.97;99754.75;7397691;19;20015;-71
2023/03/24 03:12:21;;;;;;;4.70;3.20;;;;;;;10.84;85.77;99754.06;7399418;19;20038;-70
2023/03/24 03:14:54;;;;;;;4.13;3.70;;;;;;;10.81;85.81;99756.78;7400187;19;20014;-70
2023/03/24 03:17:29;;;;;;;4.65;4.10;;;;;;;10.78;86.73;99748.16;7397652;19;20014;-70
2023/03/24 03:20:06;;;;;;;4.88;4.38;;;;;;;10.74;87.77;99752.66;7399945;19;20014;-70
2023/03/24 03:22:41;;;;;;;4.82;4.15;;;;;;;10.71;88.60;99750.19;7400928;19;20007;-71
2023/03/24 03:25:13;;;;;;;4.53;3.90;;;;;;;10.67;89.57;99741.56;7402433;19;20495;-72
2023/03/24 03:27:47;;;;;;;4.80;4.30;;;;;;;10.64;90.27;99740.81;7401032;19;20082;-71
2023/03/24 03:30:20;;;;;;;5.88;4.30;;;;;;;10.59;90.94;99733.16;7398673;19;20018;-70
2023/03/24 03:32:59;;;;;;;10.07;4.78;;;;;;;10.59;91.37;99731.38;7398311;19;20531;-71
2023/03/24 03:35:32;;;;;;;5.88;4.85;;;;;;;10.59;91.77;99730.53;7399243;19;20014;-71
2023/03/24 03:38:13;;;;;;;5.63;4.80;;;;;;;10.57;92.69;99725.31;7399257;19;20014;-70
2023/03/24 03:40:44;;;;;;;6.60;4.80;;;;;;;10.58;92.75;99716.53;7396627;19;20018;-70
2023/03/24 03:43:15;;;;;;;5.10;4.60;;;;;;;10.58;93.15;99710.44;7398329;19;20031;-70
2023/03/24 03:45:44;;;;;;;7.63;4.72;;;;;;;10.58;93.27;99705.22;7399307;19;20018;-71
2023/03/24 03:48:13;;;;;;;5.55;4.85;;;;;;;10.59;93.58;99704.31;7396134;19;20014;-70
2023/03/24 03:50:41;;;;;;;5.82;5.20;;;;;;;10.59;94.00;99704.31;7395954;19;20037;-70
2023/03/24 03:53:11;;;;;;;7.50;5.38;;;;;;;10.59;94.27;99705.13;7397957;19;20018;-70
2023/03/24 03:55:40;;;;;;;5.65;4.97;;;;;;;10.61;94.32;99702.44;7398114;19;20027;-71
2023/03/24 03:58:09;;;;;;;5.78;4.75;;;;;;;10.61;94.58;99706.84;7397941;19;20363;-70
2023/03/24 04:00:43;;;;;;;7.88;5.65;;;;;;;10.61;94.69;99697.22;7398408;19;20039;-70
2023/03/24 04:03:38;;;;;;;5.63;5.13;;;;;;;10.62;94.80;99691.06;7397499;19;20018;-70
2023/03/24 04:06:16;;;;;;;6.07;5.30;;;;;;;10.63;94.96;99686.66;7395871;19;20015;-70
2023/03/24 04:08:50;;;;;;;7.60;5.68;;;;;;;10.61;95.24;99681.47;7398368;19;20074;-70
2023/03/24 04:11:37;;;;;;;6.82;5.97;;;;;;;10.63;95.31;99678.78;7396351;19;20427;-70
2023/03/24 04:14:28;;;;;;;6.70;6.00;;;;;;;10.62;95.57;99675.31;7395845;19;20032;-70
2023/03/24 04:17:09;;;;;;;6.70;5.35;;;;;;;10.60;95.76;99669.25;7396020;19;20018;-71
2023/03/24 04:19:49;;;;;;;7.15;5.80;;;;;;;10.64;95.95;99670.00;7397296;19;20369;-71
2023/03/24 04:22:29;;;;;;;6.57;5.53;;;;;;;10.63;95.97;99665.66;7397241;19;20027;-70
2023/03/24 04:25:01;;;;;;;6.10;5.50;;;;;;;10.64;96.20;99668.25;7397806;19;20006;-71
2023/03/24 04:27:40;;;;;;;6.05;5.18;;;;;;;10.66;96.23;99655.06;7396899;19;20426;-71
2023/03/24 04:30:16;;;;;;;8.98;5.78;;;;;;;10.67;96.28;99662.03;7396386;19;20035;-71
2023/03/24 04:32:51;;;;;;;9.48;5.55;;;;;;;10.68;96.11;99664.59;7397126;19;20514;-71
2023/03/24 04:35:30;;;;;;;6.82;5.45;;;;;;;10.69;96.39;99650.56;7397093;19;20040;-71
2023/03/24 04:38:02;;;;;;;8.85;5.53;;;;;;;10.73;96.38;99654.75;7395547;19;20014;-71
2023/03/24 04:40:35;;;;;;;7.18;5.18;;;;;;;10.75;96.13;99657.31;7397036;19;20022;-71
2023/03/24 04:43:07;;;;;;;6.75;4.90;;;;;;;10.77;96.35;99663.38;7396619;19;20029;-71
2023/03/24 04:45:36;;;;;;;6.20;5.00;;;;;;;10.81;96.34;99669.34;7397053;19;20018;-71
2023/03/24 04:50:57;;;;;;;6.15;4.93;;;;;;;10.84;96.22;99666.59;7390964;19;20014;-69
2023/03/24 04:53:26;;;;;;;5.53;4.85;;;;;;;10.85;96.43;99658.66;7394984;19;20348;-70
2023/03/24 04:56:01;;;;;;;8.95;5.63;;;;;;;10.87;96.32;99653.38;7394364;19;20014;-70
2023/03/24 04:58:30;;;;;;;9.52;5.60;;;;;;;10.89;96.71;99646.25;7397204;19;20022;-70
2023/03/24 05:00:58;;;;;;;5.75;5.15;;;;;;;10.90;96.71;99651.44;7396264;19;20038;-71
2023/03/24 05:03:29;;;;;;;7.35;5.30;;;;;;;10.91;96.39;99649.69;7395255;19;20024;-71
2023/03/24 05:05:58;;;;;;;9.52;6.13;;;;;;;10.92;96.82;99646.16;7396191;19;20022;-70
2023/03/24 05:08:26;;;;;;;7.35;5.47;;;;;;;10.92;97.21;99641.75;7395957;19;20079;-70
2023/03/24 05:10:55;;;;;;;10.38;5.28;;;;;;;10.92;97.05;99636.50;7395121;19;20367;-72
2023/03/24 05:13:23;;;;;;;8.52;5.65;;;;;;;10.92;97.28;99651.41;7394556;19;20366;-71
2023/03/24 05:15:54;;;;;;;7.07;5.18;;;;;;;10.91;97.13;99645.28;7394546;19;20078;-72
2023/03/24 05:18:23;;;;;;;6.97;5.28;;;;;;;10.91;96.93;99631.31;7393676;19;20070;-71
2023/03/24 05:20:54;;;;;;;7.43;5.15;;;;;;;10.92;97.28;99633.88;7395480;19;20082;-70
2023/03/24 05:23:22;;;;;;;7.72;5.00;;;;;;;10.92;97.21;99631.25;7394446;19;20498;-71
2023/03/24 05:25:51;;;;;;;7.18;5.07;;;;;;;10.94;97.40;99632.97;7395571;19;20094;-72
2023/03/24 05:28:20;;;;;;;6.95;5.10;;;;;;;10.95;97.23;99639.94;7395418;19;20019;-72
2023/03/24 05:30:48;;;;;;;6.82;5.65;;;;;;;10.96;97.51;99636.41;7393658;19;20011;-71
2023/03/24 05:33:17;;;;;;;6.68;4.72;;;;;;;10.96;97.50;99639.84;7394263;19;20082;-70
2023/03/24 05:35:45;;;;;;;7.57;5.47;;;;;;;10.99;97.28;99636.25;7394587;19;20481;-72
2023/03/24 05:38:17;;;;;;;5.90;5.30;;;;;;;10.98;97.26;99634.53;7393506;19;20082;-70
2023/03/24 05:40:45;;;;;;;7.45;5.25;;;;;;;11.00;97.35;99630.09;7394651;19;20014;-71
2023/03/24 05:43:13;;;;;;;6.47;4.95;;;;;;;11.00;97.50;99622.22;7394139;19;20031;-71
2023/03/24 05:45:42;;;;;;;8.93;6.13;;;;;;;11.01;97.56;99616.91;7394380;19;20078;-70
2023/03/24 05:48:10;;;;;;;6.60;5.20;;;;;;;11.02;97.15;99620.38;7392726;19;20086;-71
2023/03/24 05:50:39;;;;;;;6.30;5.20;;;;;;;11.04;97.62;99610.66;7394350;19;20489;-71
2023/03/24 05:53:07;;;;;;;7.47;4.85;;;;;;;11.06;97.27;99607.06;7394166;19;20078;-70
2023/03/24 05:55:39;;;;;;;6.03;4.68;;;;;;;11.10;97.35;99606.94;7394367;19;20384;-70
2023/03/24 05:58:08;;;;;;;4.80;4.00;;;;;;;11.12;96.90;99599.84;7395679;19;20051;-71
2023/03/24 06:00:37;;;;;;;5.55;4.45;;;;;;;11.15;97.03;99591.84;7391996;19;20010;-71
2023/03/24 06:03:05;;;;;;;6.85;4.32;;;;;;;11.20;96.32;99595.97;7398320;19;20034;-70
2023/03/24 06:05:34;;;;;;;6.55;4.43;;;;;;;11.23;95.90;99585.34;7401879;19;20015;-71
2023/03/24 06:08:03;;;;;;;6.55;5.03;;;;;;;11.29;96.36;99586.00;7401101;19;20424;-70
2023/03/24 06:10:31;;;;;;;6.43;4.50;;;;;;;11.33;95.88;99571.81;7400663;19;20078;-71
2023/03/24 06:13:02;;;;;;;5.35;3.97;;;;;;;11.36;95.90;99576.94;7400487;19;20378;-70
2023/03/24 06:15:31;;;;;;;5.20;4.43;;;;;;;11.39;95.86;99580.28;7402694;19;20078;-71
2023/03/24 06:17:59;;;;;;;5.82;4.90;;;;;;;11.41;95.36;99565.31;7401610;19;20039;-70
2023/03/24 06:20:28;;;;;;;4.88;4.20;;;;;;;11.45;94.93;99568.66;7403249;19;20011;-71
2023/03/24 06:22:58;;;;;;;5.32;4.15;;;;;;;11.49;94.93;99569.38;7401196;19;20066;-71
2023/03/24 06:25:28;;;;;;;7.10;4.63;;;;;;;11.52;95.34;99567.44;7399414;19;20015;-69
2023/03/24 06:28:02;;;;;;;5.22;4.10;;;;;;;11.55;95.34;99561.19;7398009;19;20015;-71
2023/03/24 06:30:33;;;;;;;6.07;4.68;;;;;;;11.57;94.91;99555.00;7401336;19;20019;-71
2023/03/24 06:33:02;;;;;;;6.20;4.32;;;;;;;11.61;94.37;99560.94;7401087;19;20066;-71
2023/03/24 06:35:30;;;;;;;6.00;4.05;;;;;;;11.63;94.37;99555.63;7401042;19;20375;-71
2023/03/24 06:37:59;;;;;;;5.82;4.30;;;;;;;11.67;94.10;99557.19;7400502;19;20486;-71
2023/03/24 06:40:27;;;;;;;5.05;3.88;;;;;;;11.68;93.63;99549.22;7400657;19;20082;-71
2023/03/24 06:42:56;;;;;;;5.18;4.65;;;;;;;11.72;93.35;99552.56;7399916;19;20014;-71
2023/03/24 06:45:24;;;;;;;4.55;3.63;;;;;;;11.76;93.26;99559.38;7400442;19;20021;-71
2023/03/24 06:47:57;;;;;;;5.05;3.17;;;;;;;11.78;93.19;99554.94;7399754;19;20011;-71
2023/03/24 06:50:31;;;;;;;4.65;3.63;;;;;;;11.80;93.21;99547.81;7400342;19;20035;-72
2023/03/24 06:53:00;;;;;;;6.07;3.85;;;;;;;11.84;91.68;99540.63;7397954;19;20167;-72
2023/03/24 06:55:28;;;;;;;7.03;3.70;;;;;;;11.86;92.79;99544.06;7400245;19;20018;-71
2023/03/24 06:57:57;;;;;;;4.32;3.58;;;;;;;11.86;92.71;99537.00;7400209;19;20089;-71
2023/03/24 07:00:25;;;;;;;5.90;3.92;;;;;;;11.88;92.63;99536.97;7397430;19;20038;-71
2023/03/24 07:02:56;;;;;;;8.85;5.53;;;;;;;11.90;92.27;99535.09;7399035;19;20015;-70
2023/03/24 07:05:26;;;;;;;4.95;4.05;;;;;;;11.91;92.24;99539.44;7399818;19;20078;-71
2023/03/24 07:07:55;;;;;;;7.35;4.47;;;;;;;11.92;92.08;99538.53;7399520;19;20015;-71
2023/03/24 07:10:23;;;;;;;4.22;3.65;;;;;;;11.94;91.86;99541.06;7399742;19;20034;-70
2023/03/24 07:12:52;;;;;;;5.55;4.25;;;;;;;11.96;91.34;99539.28;7396305;19;20477;-72
2023/03/24 07:15:20;;;;;;;4.57;3.63;;;;;;;11.97;92.14;99528.69;7398197;19;20082;-71
2023/03/24 07:17:48;;;;;;;5.32;3.53;;;;;;;12.00;91.47;99536.41;7399579;19;20025;-71
2023/03/24 07:20:20;;;;;;;3.75;3.28;;;;;;;12.03;91.63;99538.91;7399490;19;20017;-71
2023/03/24 07:22:48;;;;;;;4.25;3.63;;;;;;;12.05;91.75;99531.78;7399164;19;20042;-71
2023/03/24 07:25:19;;;;;;;4.25;3.70;;;;;;;12.08;91.46;99533.44;7399450;19;20370;-72
2023/03/24 07:27:48;;;;;;;5.40;4.28;;;;;;;12.12;91.55;99527.09;7397358;19;20011;-71
2023/03/24 07:30:17;;;;;;;5.45;3.80;;;;;;;12.14;91.30;99527.88;7396423;19;20086;-70
2023/03/24 07:32:45;;;;;;;6.07;3.92;;;;;;;12.18;91.79;99529.44;7396505;19;20014;-70
2023/03/24 07:35:15;;;;;;;4.28;3.88;;;;;;;12.21;91.22;99525.81;7398503;19;20500;-70
2023/03/24 07:37:46;;;;;;;6.53;3.72;;;;;;;12.24;91.21;99527.44;7398037;19;20018;-70
2023/03/24 07:40:15;;;;;;;5.22;3.95;;;;;;;12.25;91.84;99532.63;7399140;19;20021;-72
2023/03/24 07:42:46;;;;;;;4.90;3.67;;;;;;;12.26;91.53;99531.69;7398189;19;20038;-70
2023/03/24 07:45:14;;;;;;;4.70;3.47;;;;;;;12.27;91.63;99528.16;7398987;19;20022;-70
2023/03/24 07:47:45;;;;;;;4.20;3.80;;;;;;;12.28;91.27;99531.63;7395989;19;20038;-70
2023/03/24 07:50:14;;;;;;;5.55;4.00;;;;;;;12.26;91.82;99521.19;7399073;19;20025;-70
2023/03/24 07:52:50;;;;;;;5.10;3.92;;;;;;;12.23;92.16;99526.56;7396097;19;20007;-70
2023/03/24 07:55:19;;;;;;;5.72;4.03;;;;;;;12.19;92.78;99544.28;7398921;19;20020;-71
2023/03/24 07:57:49;;;;;;;4.57;4.15;;;;;;;12.08;93.55;99533.44;7398411;19;20022;-71
2023/03/24 08:00:20;;;;;;;6.05;4.30;;;;;;;12.04;94.47;99538.00;7398005;19;20011;-71
2023/03/24 08:02:50;;;;;;;5.82;4.25;;;;;;;11.95;95.42;99541.00;7397852;19;20083;-70
2023/03/24 08:05:20;;;;;;;8.63;5.00;;;;;;;11.84;96.26;99540.63;7396702;19;20018;-70
2023/03/24 08:07:56;;;;;;;6.13;5.28;;;;;;;11.71;97.10;99535.97;7397582;19;20015;-67
2023/03/24 08:10:27;;;;;;;7.35;5.60;;;;;;;11.61;98.08;99549.59;7397924;19;20022;-69
2023/03/24 08:12:56;;;;;;;6.50;5.55;;;;;;;11.53;98.97;99549.94;7395906;19;20022;-68
2023/03/24 08:15:32;;;;;;;8.25;5.68;;;;;;;11.46;99.74;99545.88;7396745;19;20078;-68
2023/03/24 08:18:01;;;;;;;8.40;6.32;;;;;;;11.39;100.00;99540.03;7397640;19;20503;-67
2023/03/24 08:20:29;;;;;;;8.52;6.85;;;;;;;11.33;100.00;99535.91;7397234;19;20018;-68
2023/03/24 08:23:03;;;;;;;8.90;6.63;;;;;;;11.30;100.00;99530.78;7396728;19;20078;-68
2023/03/24 08:25:32;;;;;;;6.30;5.63;;;;;;;11.27;100.00;99522.19;7396830;19;20338;-68
2023/03/24 08:28:00;;;;;;;7.38;5.93;;;;;;;11.25;100.00;99531.00;7397201;19;20021;-67
2023/03/24 08:30:29;;;;;;;9.10;6.03;;;;;;;11.25;100.00;99530.16;7396905;19;20034;-67
2023/03/24 08:33:00;;;;;;;6.38;5.72;;;;;;;11.26;100.00;99526.59;7394950;19;20489;-67
2023/03/24 08:35:32;;;;;;;9.40;6.13;;;;;;;11.28;100.00;99529.16;7395766;19;20011;-68
2023/03/24 08:38:04;;;;;;;6.80;5.97;;;;;;;11.30;100.00;99527.31;7396865;19;20018;-67
2023/03/24 08:40:33;;;;;;;7.80;6.07;;;;;;;11.34;100.00;99521.03;7394602;19;20391;-68
2023/03/24 08:43:03;;;;;;;9.50;7.07;;;;;;;11.37;100.00;99516.47;7395958;19;20031;-67
2023/03/24 08:45:33;;;;;;;8.55;6.43;;;;;;;11.43;100.00;99511.88;7395065;19;20018;-67
2023/03/24 08:48:04;;;;;;;6.72;5.43;;;;;;;11.47;100.00;99508.19;7395631;19;21536;-67
2023/03/24 08:50:36;;;;;;;9.48;6.05;;;;;;;11.52;100.00;99516.69;7396870;19;20431;-67
2023/03/24 08:53:08;;;;;;;11.25;6.40;;;;;;;11.54;100.00;99507.84;7394176;19;20019;-67
2023/03/24 08:55:40;;;;;;;8.10;6.10;;;;;;;11.62;100.00;99523.25;7396499;19;20018;-67
2023/03/24 08:58:09;;;;;;;7.50;6.43;;;;;;;11.67;100.00;99533.53;7396468;19;20035;-67
2023/03/24 09:00:37;;;;;;;10.88;7.20;;;;;;;11.68;100.00;99535.25;7395950;19;20494;-67
2023/03/24 09:03:06;;;;;;;9.70;7.88;;;;;;;11.73;100.00;99528.00;7395539;19;20015;-67
2023/03/24 09:05:34;;;;;;;9.00;5.85;;;;;;;11.79;100.00;99540.00;7395835;19;20463;-67
2023/03/24 09:08:03;;;;;;;10.00;5.75;;;;;;;11.87;100.00;99543.97;7393757;19;20011;-66
2023/03/24 09:10:34;;;;;;;7.72;6.35;;;;;;;11.96;100.00;99544.53;7395714;19;20038;-67
2023/03/24 09:13:03;;;;;;;7.10;5.32;;;;;;;12.06;99.81;99543.16;7394343;19;20019;-71
2023/03/24 09:15:32;;;;;;;5.65;4.50;;;;;;;12.17;98.98;99543.50;7395822;19;20018;-68
2023/03/24 09:18:00;;;;;;;5.70;4.43;;;;;;;12.27;99.06;99533.41;7395674;19;20015;-66
2023/03/24 09:20:29;;;;;;;5.80;4.63;;;;;;;12.36;98.08;99532.97;7395595;19;20090;-68
2023/03/24 09:22:57;;;;;;;5.32;4.47;;;;;;;12.46;97.11;99535.13;7394240;19;20019;-68
2023/03/24 09:25:26;;;;;;;4.60;3.78;;;;;;;12.58;97.45;99536.31;7395375;19;20486;-66
2023/03/24 09:27:57;;;;;;;6.45;4.30;;;;;;;12.69;97.53;99542.75;7394937;19;20081;-67
2023/03/24 09:30:26;;;;;;;5.53;4.15;;;;;;;12.81;94.61;99546.53;7395008;19;20024;-66
2023/03/24 09:32:57;;;;;;;8.43;5.70;;;;;;;12.94;93.30;99543.28;7393419;19;20419;-67
2023/03/24 09:35:26;;;;;;;4.40;3.97;;;;;;;13.09;93.66;99541.66;7393270;19;20021;-68
2023/03/24 09:38:01;;;;;;;5.35;4.28;;;;;;;13.26;92.29;99541.63;7393327;19;20018;-67
2023/03/24 09:40:31;;;;;;;4.95;4.15;;;;;;;13.41;92.37;99553.19;7395031;19;20024;-67
2023/03/24 09:43:08;;;;;;;4.03;3.63;;;;;;;13.58;87.02;99551.44;7394781;19;20078;-68
2023/03/24 09:45:50;;;;;;;8.77;3.70;;;;;;;13.74;89.24;99546.22;7392785;19;20073;-68
2023/03/24 09:48:22;;;;;;;4.50;3.40;;;;;;;13.94;86.83;99553.00;7392426;19;20526;-68
2023/03/24 09:50:57;;;;;;;5.57;3.92;;;;;;;14.11;88.05;99538.91;7395158;19;20021;-67
2023/03/24 09:53:33;;;;;;;6.28;4.47;;;;;;;14.29;84.91;99559.00;7393173;19;20023;-67
2023/03/24 09:56:10;;;;;;;4.35;3.13;;;;;;;14.44;87.15;99540.59;7394008;19;20081;-68
2023/03/24 09:58:43;;;;;;;4.40;3.50;;;;;;;14.57;79.88;99538.09;7394780;19;20107;-68
2023/03/24 10:01:15;;;;;;;3.10;2.80;;;;;;;14.66;82.66;99549.00;7392254;19;20018;-68
2023/03/24 10:03:44;;;;;;;3.13;2.83;;;;;;;14.75;84.59;99541.50;7392188;19;20363;-67
2023/03/24 10:06:20;;;;;;;6.22;4.10;;;;;;;14.81;83.88;99552.53;7393379;19;20087;-68
2023/03/24 10:08:53;;;;;;;3.75;2.97;;;;;;;14.83;82.90;99552.44;7391774;19;20018;-68
2023/03/24 10:11:27;;;;;;;4.90;3.08;;;;;;;14.82;82.06;99554.25;7394411;19;20093;-68
2023/03/24 10:14:12;;;;;;;3.97;2.58;;;;;;;14.83;77.59;99563.84;7391315;19;20486;-68
2023/03/24 10:16:49;;;;;;;3.80;2.40;;;;;;;14.80;76.46;99558.75;7393586;19;20526;-67
2023/03/24 10:19:31;;;;;;;3.55;2.50;;;;;;;14.80;79.39;99555.28;7394258;19;20028;-67
2023/03/24 10:22:08;;;;;;;3.25;2.30;;;;;;;14.78;76.91;99565.06;7390473;19;20046;-66
2023/03/24 10:24:43;;;;;;;3.88;2.78;;;;;;;14.78;81.63;99563.25;7391626;19;20035;-67
2023/03/24 10:27:22;;;;;;;3.47;2.15;;;;;;;14.74;80.84;99566.19;7393346;19;20038;-66
2023/03/24 10:30:07;;;;;;;2.33;2.13;;;;;;;14.71;77.10;99561.94;7393126;19;20486;-67
2023/03/24 10:32:38;;;;;;;3.95;2.22;;;;;;;14.69;82.28;99561.16;7390472;19;20010;-66
2023/03/24 10:35:09;;;;;;;2.60;2.15;;;;;;;14.65;83.21;99563.13;7392501;19;20090;-67
2023/03/24 10:37:38;;;;;;;3.78;2.33;;;;;;;14.63;83.74;99558.84;7393468;19;20016;-68
2023/03/24 10:40:17;;;;;;;2.90;2.42;;;;;;;14.59;81.07;99559.97;7393168;19;20018;-67
2023/03/24 10:42:49;;;;;;;3.35;1.60;;;;;;;14.56;80.18;99568.91;7391260;19;20518;-67
2023/03/24 10:45:28;;;;;;;3.92;1.85;;;;;;;14.52;72.66;99598.19;7392963;19;20427;-67
2023/03/24 10:48:00;;;;;;;3.33;1.98;;;;;;;14.48;72.41;99576.41;7394133;19;20029;-67
2023/03/24 10:50:30;;;;;;;3.55;1.50;;;;;;;14.47;69.71;99582.66;7399088;19;20046;-66
2023/03/24 10:52:59;;;;;;;3.70;1.42;;;;;;;14.42;67.43;99590.81;7398459;19;20023;-67
2023/03/24 10:55:32;;;;;;;3.08;1.73;;;;;;;14.43;69.94;99594.28;7399622;19;20025;-67
2023/03/24 10:58:02;;;;;;;1.63;1.10;;;;;;;14.41;70.01;99601.47;7397811;19;20015;-67
2023/03/24 11:00:34;;;;;;;3.67;1.40;;;;;;;14.38;64.21;99605.13;7397302;19;20026;-66
2023/03/24 11:03:07;;;;;;;0.95;0.75;;;;;;;14.33;57.16;99600.09;7397377;19;20014;-68
2023/03/24 11:05:38;;;;;;;2.85;1.13;;;;;;;14.30;59.17;99612.59;7399928;19;20010;-67
2023/03/24 11:08:25;;;;;;;3.30;1.00;;;;;;;14.29;62.69;99589.78;7397150;19;20445;-68
2023/03/24 11:10:54;;;;;;;1.70;0.88;;;;;;;14.27;68.62;99607.50;7397308;19;20028;-67
2023/03/24 11:13:31;;;;;;;1.35;1.02;;;;;;;14.23;62.96;99604.19;7398527;19;20015;-67
2023/03/24 11:16:08;;;;;;;2.70;1.23;;;;;;;14.21;64.59;99603.41;7396787;19;20021;-67
2023/03/24 11:18:37;;;;;;;2.15;1.13;;;;;;;14.20;68.14;99609.59;7396436;19;20482;-70
2023/03/24 11:21:08;;;;;;;1.85;1.00;;;;;;;14.18;69.57;99604.41;7396851;19;20355;-71
2023/03/24 11:23:41;;;;;;;2.13;0.90;;;;;;;14.18;68.91;99607.06;7397638;19;20015;-70
2023/03/24 11:26:16;;;;;;;1.88;1.15;;;;;;;14.22;71.35;99612.19;7397289;19;20355;-70
2023/03/24 11:28:48;;;;;;;3.00;1.40;;;;;;;14.25;70.27;99609.38;7396878;19;20022;-71
2023/03/24 11:31:29;;;;;;;1.70;1.02;;;;;;;14.28;67.20;99609.19;7398773;19;20491;-70
2023/03/24 11:34:01;;;;;;;2.45;1.88;;;;;;;14.34;71.24;99607.06;7398337;19;20042;-71
2023/03/24 11:36:42;;;;;;;2.30;1.25;;;;;;;14.43;67.99;99610.13;7397034;19;20478;-71
2023/03/24 11:39:18;;;;;;;4.90;1.63;;;;;;;14.49;69.92;99620.34;7396673;19;20021;-70
2023/03/24 11:41:54;;;;;;;1.85;1.20;;;;;;;14.49;68.51;99605.38;7395953;19;20022;-70
2023/03/24 11:44:25;;;;;;;2.45;1.33;;;;;;;14.53;71.95;99607.81;7396339;19;20039;-70
2023/03/24 11:47:00;;;;;;;3.45;1.50;;;;;;;14.56;71.37;99620.84;7398952;19;20086;-70
2023/03/24 11:49:32;;;;;;;2.08;1.35;;;;;;;14.57;72.75;99618.13;7396462;19;20069;-70
2023/03/24 11:52:02;;;;;;;2.70;1.70;;;;;;;14.61;73.31;99616.19;7396596;19;20082;-69
2023/03/24 11:54:35;;;;;;;2.22;1.33;;;;;;;14.61;72.83;99617.00;7395662;19;20074;-69
2023/03/24 11:57:08;;;;;;;3.35;1.75;;;;;;;14.62;71.38;99617.84;7398072;19;20091;-70
2023/03/24 11:59:43;;;;;;;1.77;1.52;;;;;;;14.63;71.07;99603.72;7397346;19;20089;-70